Time;durP1;ratioP1;P1;durP2;ratioP2;P2;SDS_P1;SDS_P2;PMS_P1;PMS_P2;Temp;Humidity;BMP_temperature;BMP_pressure;BME280_temperature;BME280_humidity;BME280_pressure;Samples;Min_cycle;Max_cycle;Signal;HPM_P1;HPM_P2
2022/09/19 00:01:26;;;;;;;0.30;0.20;;;;;;;24.64;35.71;100511.08;1769968;80;21007;-76
2022/09/19 00:03:57;;;;;;;1.22;0.55;;;;;;;24.64;35.71;100516.64;1770421;81;21043;-76
2022/09/19 00:06:24;;;;;;;0.70;0.40;;;;;;;24.65;35.73;100511.89;1770073;80;21030;-76
2022/09/19 00:08:50;;;;;;;1.27;0.50;;;;;;;24.64;35.71;100515.83;1769813;79;21029;-76
2022/09/19 00:11:19;;;;;;;0.80;0.42;;;;;;;24.64;35.73;100513.86;1763846;81;21069;-76
2022/09/19 00:13:47;;;;;;;0.60;0.30;;;;;;;24.64;35.74;100514.44;1708587;83;21068;-76
2022/09/19 00:16:29;;;;;;;0.70;0.50;;;;;;;24.63;35.72;100511.41;1776981;80;20992;-76
2022/09/19 00:18:57;;;;;;;0.98;0.50;;;;;;;24.64;35.75;100510.26;1777095;80;21031;-76
2022/09/19 00:21:31;;;;;;;0.68;0.47;;;;;;;24.63;35.75;100511.41;1776654;79;21862;-76
2022/09/19 00:26:43;;;;;;;0.65;0.40;;;;;;;24.62;35.69;100506.42;1776912;80;21583;-76
2022/09/19 00:29:09;;;;;;;0.72;0.40;;;;;;;24.62;35.71;100493.09;1776817;79;21015;-76
2022/09/19 00:31:35;;;;;;;0.47;0.35;;;;;;;24.62;35.69;100494.48;1777073;80;21015;-76
2022/09/19 00:34:06;;;;;;;0.42;0.30;;;;;;;24.63;35.70;100498.89;1776875;80;21432;-76
2022/09/19 00:36:30;;;;;;;1.70;0.30;;;;;;;24.62;35.71;100507.01;1776562;79;21032;-76
2022/09/19 00:38:57;;;;;;;0.33;0.33;;;;;;;24.61;35.70;100509.00;1777109;80;21091;-76
2022/09/19 00:41:26;;;;;;;0.47;0.35;;;;;;;24.61;35.67;100517.34;1780994;80;21499;-76
2022/09/19 00:44:02;;;;;;;0.82;0.40;;;;;;;24.62;35.69;100525.90;1782383;80;20950;-76
2022/09/19 00:46:31;;;;;;;0.70;0.30;;;;;;;24.61;35.70;100527.08;1782035;80;21496;-76
2022/09/19 00:49:05;;;;;;;0.93;0.47;;;;;;;24.59;35.66;100530.78;1792121;79;21014;-76
2022/09/19 00:51:35;;;;;;;0.75;0.40;;;;;;;24.61;35.69;100522.09;1814062;78;21073;-76
2022/09/19 00:54:13;;;;;;;1.17;0.40;;;;;;;24.60;35.69;100519.89;1813845;78;21034;-76
2022/09/19 00:56:44;;;;;;;0.60;0.40;;;;;;;24.60;35.70;100524.06;1814263;79;21065;-76
2022/09/19 00:59:10;;;;;;;1.10;0.55;;;;;;;24.60;35.72;100524.64;1814493;78;22109;-76
2022/09/19 01:01:38;;;;;;;1.05;0.40;;;;;;;24.61;35.70;100526.27;1791808;79;21058;-76
2022/09/19 01:04:15;;;;;;;0.93;0.40;;;;;;;24.61;35.67;100527.66;1791413;78;21497;-76
2022/09/19 01:06:49;;;;;;;0.90;0.40;;;;;;;24.59;35.72;100523.83;1813357;79;21408;-76
2022/09/19 01:09:48;;;;;;;0.90;0.50;;;;;;;24.61;35.72;100527.66;1813882;77;20955;-76
2022/09/19 01:12:46;;;;;;;0.57;0.40;;;;;;;24.60;35.72;100521.28;1814541;78;21025;-76
2022/09/19 01:15:47;;;;;;;0.50;0.40;;;;;;;24.58;35.71;100521.63;1814056;78;21042;-76
2022/09/19 01:18:13;;;;;;;0.90;0.50;;;;;;;24.57;35.73;100525.56;1814342;79;21038;-76
2022/09/19 01:21:38;;;;;;;0.88;0.60;;;;;;;24.57;35.72;100533.91;1813861;79;21034;-75
2022/09/19 01:23:57;;;;;;;0.85;0.42;;;;;;;24.57;35.70;100540.05;1809326;79;21056;-76
2022/09/19 01:27:14;;;;;;;1.15;0.60;;;;;;;24.55;35.68;100532.07;1767148;80;21100;-75
2022/09/19 01:29:48;;;;;;;0.53;0.30;;;;;;;24.55;35.67;100529.86;1780991;80;21072;-75
2022/09/19 01:32:18;;;;;;;0.85;0.50;;;;;;;24.53;35.73;100530.20;1813905;78;21065;-75
2022/09/19 01:34:49;;;;;;;;;;;;;;;24.53;35.71;100532.98;1817024;78;20931;-75
2022/09/19 01:37:28;;;;;;;0.70;0.40;;;;;;;24.51;35.69;100538.11;1814213;79;26890;-76
2022/09/19 01:39:55;;;;;;;0.88;0.37;;;;;;;24.50;35.76;100540.65;1814265;79;21080;-75
2022/09/19 01:42:22;;;;;;;0.82;0.50;;;;;;;24.50;35.79;100540.65;1803099;78;21469;-75
2022/09/19 01:44:49;;;;;;;0.85;0.42;;;;;;;24.51;35.75;100540.89;1803451;79;20990;-75
2022/09/19 01:47:39;;;;;;;1.70;0.40;;;;;;;24.51;35.73;100539.50;1803661;79;21512;-76
2022/09/19 01:50:26;;;;;;;0.57;0.40;;;;;;;24.51;35.74;100536.72;1803601;79;21633;-75
2022/09/19 01:53:16;;;;;;;1.05;0.40;;;;;;;24.51;35.73;100535.90;1803565;79;21135;-76
2022/09/19 01:55:57;;;;;;;2.05;0.40;;;;;;;24.50;35.73;100533.70;1802258;79;21504;-76
2022/09/19 01:58:37;;;;;;;0.33;0.30;;;;;;;24.51;35.71;100543.67;1803204;78;21006;-76
2022/09/19 02:01:16;;;;;;;0.37;0.30;;;;;;;24.50;35.68;100539.84;1803241;79;21058;-76
2022/09/19 02:04:01;;;;;;;0.90;0.50;;;;;;;24.50;35.71;100539.26;1803183;79;21076;-76
2022/09/19 02:06:54;;;;;;;1.62;0.30;;;;;;;24.50;35.70;100536.48;1781048;79;21156;-76
2022/09/19 02:09:56;;;;;;;0.57;0.30;;;;;;;24.50;35.71;100548.18;1803643;78;20974;-76
2022/09/19 02:12:23;;;;;;;1.20;0.50;;;;;;;24.50;35.70;100552.35;1803534;79;20994;-76
2022/09/19 02:14:54;;;;;;;0.62;0.40;;;;;;;24.49;35.69;100547.37;1803635;78;21065;-76
2022/09/19 02:17:23;;;;;;;0.57;0.40;;;;;;;24.49;35.69;100552.11;1803730;78;21078;-76
2022/09/19 02:19:54;;;;;;;0.78;0.50;;;;;;;24.48;35.69;100544.38;1803203;79;21266;-76
2022/09/19 02:22:29;;;;;;;0.68;0.30;;;;;;;24.49;35.67;100551.54;1801614;79;21011;-76
2022/09/19 02:24:58;;;;;;;0.72;0.40;;;;;;;24.48;35.70;100558.28;1803310;78;21535;-76
2022/09/19 02:27:37;;;;;;;1.35;0.40;;;;;;;24.48;35.69;100552.72;1803453;78;21528;-76
2022/09/19 02:30:08;;;;;;;0.57;0.40;;;;;;;24.49;35.71;100554.31;1803214;78;21018;-76
2022/09/19 02:32:35;;;;;;;0.40;0.33;;;;;;;24.49;35.74;100556.28;1742595;79;21019;-76
2022/09/19 02:35:02;;;;;;;0.57;0.40;;;;;;;24.49;35.74;100553.50;1803471;79;21047;-76
2022/09/19 02:37:39;;;;;;;0.62;0.40;;;;;;;24.48;35.70;100551.33;1803350;79;20983;-76
2022/09/19 02:40:23;;;;;;;0.40;0.40;;;;;;;24.50;35.70;100550.96;1778287;78;21547;-76
2022/09/19 02:43:07;;;;;;;0.88;0.50;;;;;;;24.49;35.69;100552.11;1784743;79;21594;-76
2022/09/19 02:45:43;;;;;;;0.82;0.45;;;;;;;24.49;35.67;100556.28;1782123;79;21949;-76
2022/09/19 02:48:34;;;;;;;0.57;0.47;;;;;;;24.48;35.64;100559.67;1782101;79;21012;-76
2022/09/19 02:51:12;;;;;;;0.93;0.40;;;;;;;24.48;35.63;100550.52;1782586;79;21028;-76
2022/09/19 02:53:42;;;;;;;1.62;0.62;;;;;;;24.47;35.62;100552.48;1781879;79;21287;-76
2022/09/19 02:56:13;;;;;;;0.88;0.42;;;;;;;24.47;35.63;100553.06;1782345;78;21076;-76
2022/09/19 02:58:42;;;;;;;0.60;0.40;;;;;;;24.47;35.63;100551.67;1796468;78;21266;-76
2022/09/19 03:01:18;;;;;;;0.53;0.35;;;;;;;24.46;35.64;100558.38;1781478;78;20977;-76
2022/09/19 03:06:37;;;;;;;0.82;0.40;;;;;;;24.46;35.69;100560.59;1781833;79;21068;-76
2022/09/19 03:09:05;;;;;;;1.10;0.40;;;;;;;24.46;35.67;100560.59;1782027;79;21064;-76
2022/09/19 03:11:32;;;;;;;0.90;0.40;;;;;;;24.46;35.71;100561.16;1781944;79;21910;-76
2022/09/19 03:13:59;;;;;;;0.95;0.60;;;;;;;24.46;35.71;100552.82;1796809;78;21017;-76
2022/09/19 03:16:34;;;;;;;0.50;0.40;;;;;;;24.46;35.66;100552.82;1782040;79;21037;-76
2022/09/19 03:18:57;;;;;;;0.45;0.40;;;;;;;24.46;35.67;100555.60;1781845;78;21041;-76
2022/09/19 03:21:26;;;;;;;1.10;0.50;;;;;;;24.46;35.69;100546.69;1797194;78;21005;-76
2022/09/19 03:23:58;;;;;;;1.02;0.45;;;;;;;24.46;35.66;100547.27;1796930;78;21222;-76
2022/09/19 03:26:30;;;;;;;0.75;0.50;;;;;;;24.46;35.66;100547.27;1781615;79;21056;-76
2022/09/19 03:28:54;;;;;;;0.78;0.53;;;;;;;24.46;35.66;100550.05;1780619;79;25462;-76
2022/09/19 03:31:22;;;;;;;0.40;0.37;;;;;;;24.45;35.63;100556.18;1782044;79;21448;-76
2022/09/19 03:33:49;;;;;;;0.95;0.40;;;;;;;24.45;35.66;100555.36;1782412;78;21127;-76
2022/09/19 03:36:15;;;;;;;1.37;0.65;;;;;;;24.44;35.66;100565.67;1771287;79;21005;-75
2022/09/19 03:38:44;;;;;;;0.57;0.37;;;;;;;24.46;35.65;100562.56;1797390;78;21017;-76
2022/09/19 03:41:14;;;;;;;0.47;0.37;;;;;;;24.46;35.65;100566.73;1781770;79;21032;-76
2022/09/19 03:43:43;;;;;;;0.40;0.40;;;;;;;24.46;35.64;100568.12;1781649;78;21049;-77
2022/09/19 03:46:15;;;;;;;1.82;0.40;;;;;;;24.46;35.66;100572.29;1782342;78;21459;-76
2022/09/19 03:48:44;;;;;;;0.88;0.40;;;;;;;24.45;35.62;100575.65;1782505;78;21126;-76
2022/09/19 03:51:10;;;;;;;1.42;0.68;;;;;;;24.44;35.59;100579.58;1781753;78;21080;-76
2022/09/19 03:53:37;;;;;;;0.70;0.55;;;;;;;24.44;35.44;100582.36;1771144;80;21478;-76
2022/09/19 03:56:04;;;;;;;1.00;0.50;;;;;;;24.43;35.38;100578.56;1782490;80;21032;-76
2022/09/19 03:58:30;;;;;;;1.22;0.60;;;;;;;24.42;35.28;100581.92;1782248;80;20982;-76
2022/09/19 04:00:57;;;;;;;1.05;0.55;;;;;;;24.41;35.23;100590.02;1797953;79;21056;-76
2022/09/19 04:03:25;;;;;;;3.00;0.40;;;;;;;24.41;35.10;100586.42;1782246;80;21439;-76
2022/09/19 04:05:51;;;;;;;1.77;0.50;;;;;;;24.37;35.01;100590.48;1782002;79;21040;-76
2022/09/19 04:08:19;;;;;;;0.68;0.50;;;;;;;24.37;34.94;100591.88;1782206;79;21029;-76
2022/09/19 04:10:45;;;;;;;0.75;0.42;;;;;;;24.35;34.88;100595.59;1782223;79;21029;-76
2022/09/19 04:13:12;;;;;;;1.10;0.50;;;;;;;24.34;34.86;100592.58;1782197;79;21139;-76
2022/09/19 04:15:38;;;;;;;0.72;0.50;;;;;;;24.34;34.81;100587.59;1782453;80;20965;-76
2022/09/19 04:18:10;;;;;;;1.42;0.60;;;;;;;24.34;34.78;100587.59;1781789;80;21066;-76
2022/09/19 04:20:38;;;;;;;2.42;0.50;;;;;;;24.32;34.69;100589.90;1781958;80;21111;-76
2022/09/19 04:23:04;;;;;;;1.62;0.60;;;;;;;24.30;34.61;100594.44;1782281;79;21052;-76
2022/09/19 04:25:34;;;;;;;1.50;0.60;;;;;;;24.29;34.59;100599.76;1772215;79;21085;-76
2022/09/19 04:28:02;;;;;;;1.57;0.65;;;;;;;24.28;34.56;100600.09;1728659;81;21060;-76
2022/09/19 04:30:28;;;;;;;2.33;0.90;;;;;;;24.27;34.47;100599.31;1734190;82;21051;-77
2022/09/19 04:32:55;;;;;;;2.77;0.70;;;;;;;24.25;34.36;100599.41;1734013;80;21507;-77
2022/09/19 04:35:22;;;;;;;1.12;0.57;;;;;;;24.19;34.25;100596.04;1737010;81;21081;-77
2022/09/19 04:37:49;;;;;;;1.32;0.50;;;;;;;24.16;34.10;100604.27;1718918;81;21266;-76
2022/09/19 04:40:16;;;;;;;3.92;0.70;;;;;;;24.09;34.05;100603.44;1791629;77;21668;-76
2022/09/19 04:42:43;;;;;;;5.85;0.82;;;;;;;24.02;34.00;100608.73;1726261;79;21099;-76
2022/09/19 04:45:20;;;;;;;4.40;0.95;;;;;;;23.91;33.84;100613.13;1733759;80;21616;-78
2022/09/19 04:47:44;;;;;;;4.37;1.02;;;;;;;23.81;33.78;100614.94;1744823;80;21107;-77
2022/09/19 04:50:11;;;;;;;4.95;1.10;;;;;;;23.69;33.69;100614.34;1746452;79;21582;-78
2022/09/19 04:52:38;;;;;;;13.95;1.45;;;;;;;23.61;33.73;100620.23;1741640;80;21534;-77
2022/09/19 04:55:12;;;;;;;6.97;1.15;;;;;;;23.54;33.76;100615.00;1742277;80;21053;-77
2022/09/19 04:57:37;;;;;;;6.72;1.42;;;;;;;23.47;33.82;100620.28;1753669;80;21075;-76
2022/09/19 05:00:05;;;;;;;9.63;1.10;;;;;;;23.39;33.89;100619.19;1735652;80;21027;-78
2022/09/19 05:02:31;;;;;;;6.12;1.17;;;;;;;23.38;33.95;100619.55;1676769;84;21146;-77
2022/09/19 05:04:59;;;;;;;20.65;1.55;;;;;;;23.37;34.00;100621.50;1734654;80;21489;-78
2022/09/19 05:07:33;;;;;;;7.00;1.20;;;;;;;23.38;33.89;100616.77;1732699;80;21372;-78
2022/09/19 05:09:53;;;;;;;14.47;1.62;;;;;;;23.38;33.89;100618.94;1714426;80;21089;-78
2022/09/19 05:12:20;;;;;;;10.48;1.55;;;;;;;23.39;33.84;100622.53;1734456;80;21106;-79
2022/09/19 05:14:46;;;;;;;6.72;1.40;;;;;;;23.39;33.68;100621.14;1714043;82;21040;-78
2022/09/19 05:17:15;;;;;;;6.28;1.50;;;;;;;23.38;33.64;100613.99;1713766;80;21471;-78
2022/09/19 05:19:42;;;;;;;6.78;1.30;;;;;;;23.40;33.55;100617.22;1738419;80;21110;-77
2022/09/19 05:22:09;;;;;;;7.62;1.60;;;;;;;23.40;33.44;100619.42;1725506;80;21615;-78
2022/09/19 05:24:37;;;;;;;4.03;1.87;;;;;;;23.39;33.36;100613.63;1737032;80;21036;-77
2022/09/19 05:27:03;;;;;;;2.83;1.65;;;;;;;23.39;33.28;100615.02;1723777;80;22309;-78
2022/09/19 05:29:36;;;;;;;9.18;1.40;;;;;;;23.37;33.24;100618.73;1701149;81;21106;-77
2022/09/19 05:32:04;;;;;;;;;;;;;;;23.38;33.21;100618.94;1730969;80;21117;-77
2022/09/19 05:34:31;;;;;;;2.10;1.30;;;;;;;23.38;33.24;100616.16;1737989;80;20533;-77
2022/09/19 05:36:58;;;;;;;4.62;1.10;;;;;;;23.36;33.46;100618.48;1738165;80;21099;-77
2022/09/19 05:39:24;;;;;;;3.20;1.05;;;;;;;23.36;33.55;100621.27;1737522;81;22091;-79
2022/09/19 05:41:51;;;;;;;11.28;1.27;;;;;;;23.39;33.60;100622.53;1744491;79;21059;-77
2022/09/19 05:44:17;;;;;;;3.33;1.10;;;;;;;23.41;33.69;100626.61;1770425;79;21982;-77
2022/09/19 05:46:43;;;;;;;9.10;1.40;;;;;;;23.41;33.82;100623.02;1693772;81;21079;-77
2022/09/19 05:49:10;;;;;;;13.38;1.50;;;;;;;23.39;34.00;100621.14;1713805;81;22249;-77
2022/09/19 05:51:36;;;;;;;17.42;1.82;;;;;;;23.36;34.01;100625.43;1741092;80;22209;-77
2022/09/19 05:54:03;;;;;;;13.85;1.92;;;;;;;23.31;34.17;100631.18;1739196;80;21019;-78
2022/09/19 05:56:30;;;;;;;24.35;2.40;;;;;;;23.22;34.24;100623.50;1733156;80;21590;-77
2022/09/19 05:59:02;;;;;;;18.25;1.82;;;;;;;23.12;34.45;100625.32;1700387;82;21062;-77
2022/09/19 06:01:29;;;;;;;13.28;1.95;;;;;;;23.11;34.87;100626.47;1714663;82;21031;-79
2022/09/19 06:03:57;;;;;;;15.32;1.87;;;;;;;23.13;34.99;100625.53;1707621;82;21660;-77
2022/09/19 06:06:23;;;;;;;12.88;1.90;;;;;;;23.18;34.85;100630.88;1759231;79;21084;-78
2022/09/19 06:08:56;;;;;;;10.53;2.67;;;;;;;23.22;34.68;100640.16;1775958;79;21103;-79
2022/09/19 06:11:23;;;;;;;12.47;2.60;;;;;;;23.27;34.45;100637.75;1795366;78;21146;-79
2022/09/19 06:16:33;;;;;;;8.40;3.02;;;;;;;23.34;34.05;100635.27;1770321;79;22112;-79
2022/09/19 06:19:00;;;;;;;8.95;4.12;;;;;;;23.37;33.81;100638.73;1782209;78;21042;-79
2022/09/19 06:21:26;;;;;;;7.62;4.78;;;;;;;23.41;33.54;100641.06;1781008;78;21104;-82
2022/09/19 06:23:52;;;;;;;7.22;4.08;;;;;;;23.42;33.26;100641.31;1774145;78;21104;-78
2022/09/19 06:26:22;;;;;;;10.40;4.10;;;;;;;23.41;33.24;100641.06;1705602;82;21079;-80
2022/09/19 06:28:51;;;;;;;6.08;3.67;;;;;;;23.42;33.03;100644.91;1712100;80;39507;-78
2022/09/19 06:31:17;;;;;;;5.20;3.20;;;;;;;23.43;33.00;100640.98;1719302;81;21108;-77
2022/09/19 06:33:44;;;;;;;12.10;3.83;;;;;;;23.47;32.97;100644.70;1722640;81;21129;-82
2022/09/19 06:36:16;;;;;;;7.70;2.87;;;;;;;23.47;32.65;100643.31;1723486;80;21532;-79
2022/09/19 06:38:43;;;;;;;6.87;3.25;;;;;;;23.48;32.72;100646.33;1738470;81;21068;-79
2022/09/19 06:41:09;;;;;;;6.78;3.77;;;;;;;23.48;32.57;100651.06;1726062;81;21224;-80
2022/09/19 06:43:36;;;;;;;6.87;3.80;;;;;;;23.50;32.54;100654.33;1735299;80;21780;-78
2022/09/19 06:46:03;;;;;;;7.55;3.92;;;;;;;23.49;32.40;100653.52;1731957;81;21069;-80
2022/09/19 06:48:30;;;;;;;18.07;4.03;;;;;;;23.47;32.33;100653.60;1719835;81;21029;-76
2022/09/19 06:50:56;;;;;;;21.05;3.62;;;;;;;23.47;32.82;100647.47;1718325;80;21065;-78
2022/09/19 06:53:23;;;;;;;24.92;3.33;;;;;;;23.47;33.41;100654.98;1724238;81;22107;-79
2022/09/19 06:55:49;;;;;;;25.17;3.25;;;;;;;23.46;34.04;100652.00;1738502;81;21238;-74
2022/09/19 06:58:16;;;;;;;38.48;3.00;;;;;;;23.49;34.49;100658.25;1744507;80;21049;-77
2022/09/19 07:00:44;;;;;;;43.25;3.92;;;;;;;23.48;34.34;100654.66;1716566;81;21065;-78
2022/09/19 07:03:13;;;;;;;31.55;3.33;;;;;;;23.42;34.32;100659.36;1730861;80;21068;-78
2022/09/19 07:05:42;;;;;;;17.02;2.60;;;;;;;23.40;34.53;100661.07;1726960;81;21408;-75
2022/09/19 07:08:12;;;;;;;13.55;1.90;;;;;;;23.37;34.24;100663.72;1685608;82;21489;-75
2022/09/19 07:10:38;;;;;;;7.62;1.55;;;;;;;23.27;34.14;100658.00;1717410;80;21183;-75
2022/09/19 07:13:05;;;;;;;6.87;1.65;;;;;;;23.26;34.05;100663.30;1714339;81;21559;-74
2022/09/19 07:15:35;;;;;;;9.80;1.72;;;;;;;23.24;33.94;100669.79;1785202;79;21035;-74
2022/09/19 07:18:01;;;;;;;9.00;2.50;;;;;;;23.27;34.00;100662.16;1783896;78;21181;-74
2022/09/19 07:20:28;;;;;;;11.18;1.50;;;;;;;23.30;33.87;100668.41;1772816;79;21076;-76
2022/09/19 07:23:05;;;;;;;6.95;3.08;;;;;;;23.33;33.78;100668.33;1779065;79;21092;-76
2022/09/19 07:25:32;;;;;;;10.18;2.08;;;;;;;23.37;33.84;100669.28;1730251;80;21103;-75
2022/09/19 07:28:01;;;;;;;7.92;1.95;;;;;;;23.38;33.73;100672.30;1744434;80;21092;-76
2022/09/19 07:30:28;;;;;;;7.60;1.50;;;;;;;23.41;33.72;100669.64;1739467;80;21602;-74
2022/09/19 07:32:57;;;;;;;10.23;1.72;;;;;;;23.44;33.67;100668.17;1736338;80;21245;-75
2022/09/19 07:35:28;;;;;;;7.42;1.60;;;;;;;23.47;33.64;100673.85;1769635;79;21123;-79
2022/09/19 07:37:57;;;;;;;5.70;1.67;;;;;;;23.49;33.53;100674.91;1775370;79;21058;-80
2022/09/19 07:40:23;;;;;;;5.12;1.47;;;;;;;23.49;33.47;100668.79;1775833;78;21043;-79
2022/09/19 07:42:53;;;;;;;2.80;1.52;;;;;;;23.51;33.44;100665.08;1759717;79;21528;-78
2022/09/19 07:45:19;;;;;;;21.93;2.42;;;;;;;23.52;33.38;100674.22;1773554;78;21053;-77
2022/09/19 07:47:49;;;;;;;15.78;1.87;;;;;;;23.51;33.56;100665.65;1761536;79;21079;-83
2022/09/19 07:50:19;;;;;;;23.77;3.20;;;;;;;23.50;33.77;100675.97;1755291;79;21096;-78
2022/09/19 07:52:46;;;;;;;40.08;3.67;;;;;;;23.47;33.98;100663.31;1758559;78;21039;-75
2022/09/19 07:55:15;;;;;;;34.20;3.55;;;;;;;23.46;34.24;100674.22;1740222;79;21934;-77
2022/09/19 07:57:52;;;;;;;32.90;3.33;;;;;;;23.47;34.78;100677.20;1766176;78;21083;-76
2022/09/19 08:00:19;;;;;;;33.85;3.80;;;;;;;23.50;35.02;100672.38;1768515;79;21080;-78
2022/09/19 08:02:56;;;;;;;40.60;3.37;;;;;;;23.52;35.16;100677.81;1766938;78;21644;-76
2022/09/19 08:05:23;;;;;;;22.48;2.58;;;;;;;23.53;35.34;100675.86;1764258;78;21063;-75
2022/09/19 08:07:50;;;;;;;29.60;4.17;;;;;;;23.54;35.48;100668.58;1777550;78;21497;-78
2022/09/19 08:10:17;;;;;;;16.97;2.20;;;;;;;23.55;35.58;100660.46;1761778;78;21326;-78
2022/09/19 08:12:44;;;;;;;15.95;2.10;;;;;;;23.58;35.48;100658.41;1777347;78;21703;-80
2022/09/19 08:15:15;;;;;;;17.73;2.20;;;;;;;23.60;35.29;100663.61;1761755;79;20968;-80
2022/09/19 08:17:57;;;;;;;10.13;2.37;;;;;;;23.60;35.15;100657.48;1772509;78;21017;-81
2022/09/19 08:20:28;;;;;;;14.00;3.00;;;;;;;23.64;35.08;100654.83;1774719;78;22162;-82
2022/09/19 08:23:05;;;;;;;24.82;3.05;;;;;;;23.68;35.16;100658.55;1775253;78;21087;-83
2022/09/19 08:25:33;;;;;;;14.50;2.58;;;;;;;23.70;35.04;100656.25;1752422;79;21679;-82
2022/09/19 08:28:00;;;;;;;17.55;3.33;;;;;;;23.71;34.92;100652.33;1767362;78;21061;-79
2022/09/19 08:30:29;;;;;;;11.48;2.33;;;;;;;23.73;34.96;100646.41;1760813;79;21120;-83
2022/09/19 08:32:56;;;;;;;11.00;2.35;;;;;;;23.75;34.82;100642.72;1750427;80;21019;-80
2022/09/19 08:35:23;;;;;;;9.35;2.10;;;;;;;23.76;34.78;100629.08;1763588;79;21021;-79
2022/09/19 08:37:54;;;;;;;11.12;2.42;;;;;;;23.80;34.86;100632.79;1764424;79;21077;-84
2022/09/19 08:40:44;;;;;;;20.88;2.92;;;;;;;23.81;34.92;100626.87;1774483;79;21614;-81
2022/09/19 08:44:02;;;;;;;17.55;1.67;;;;;;;23.83;35.35;100626.54;1761104;79;21094;-78
2022/09/19 08:46:51;;;;;;;9.53;1.60;;;;;;;23.76;34.97;100617.97;1785227;78;21302;-81
2022/09/19 08:49:34;;;;;;;7.17;1.17;;;;;;;23.63;34.63;100608.22;1754539;78;21451;-78
2022/09/19 08:52:14;;;;;;;9.90;1.67;;;;;;;23.58;34.31;100611.78;1792905;77;21079;-77
2022/09/19 08:54:43;;;;;;;;;;;;;;;23.55;34.27;100607.70;1788857;78;21504;-79
2022/09/19 08:57:37;;;;;;;13.00;1.37;;;;;;;23.53;34.23;100600.30;1783677;79;20260;-81
2022/09/19 09:00:11;;;;;;;5.87;0.98;;;;;;;23.50;34.34;100596.83;1773275;78;21771;-79
2022/09/19 09:02:55;;;;;;;3.72;1.15;;;;;;;23.50;34.18;100589.08;1776276;79;21681;-79
2022/09/19 09:05:53;;;;;;;11.28;1.30;;;;;;;23.47;34.00;100587.77;1782691;78;21005;-78
2022/09/19 09:08:32;;;;;;;14.43;2.30;;;;;;;23.48;33.95;100584.42;1776488;78;21094;-80
2022/09/19 09:11:13;;;;;;;18.90;3.45;;;;;;;23.51;34.11;100585.94;1789485;77;21080;-81
2022/09/19 09:14:05;;;;;;;;;;;;;;;23.55;34.29;100579.93;1736682;80;21150;-81
2022/09/19 09:16:53;;;;;;;6.90;1.80;;;;;;;23.60;34.42;100585.27;1778465;79;20770;-80
2022/09/19 09:20:07;;;;;;;8.83;1.55;;;;;;;23.61;34.19;100581.34;1681521;80;20993;-83
2022/09/19 09:22:40;;;;;;;9.35;2.00;;;;;;;23.62;33.91;100584.94;1774546;78;20969;-80
2022/09/19 09:25:14;;;;;;;7.42;2.50;;;;;;;23.61;33.73;100577.75;1740218;80;21079;-80
2022/09/19 09:28:09;;;;;;;7.25;1.60;;;;;;;23.62;33.58;100578.81;1744307;80;21555;-80
2022/09/19 09:30:39;;;;;;;9.43;2.00;;;;;;;23.63;33.39;100574.89;1759296;79;21029;-79
2022/09/19 09:33:28;;;;;;;4.28;1.70;;;;;;;23.66;33.38;100574.77;1778485;79;21119;-81
2022/09/19 09:36:06;;;;;;;8.65;1.50;;;;;;;23.66;33.29;100575.58;1784324;79;21090;-80
2022/09/19 09:38:48;;;;;;;12.28;2.42;;;;;;;23.68;33.18;100574.64;1766738;79;21099;-81
2022/09/19 09:41:45;;;;;;;9.95;2.25;;;;;;;23.70;33.12;100566.55;1777367;79;21738;-81
2022/09/19 09:44:34;;;;;;;12.45;2.25;;;;;;;23.71;32.92;100571.77;1772057;79;21046;-79
2022/09/19 09:47:43;;;;;;;10.38;1.67;;;;;;;23.73;32.88;100568.63;1775805;79;22442;-80
2022/09/19 09:50:39;;;;;;;7.25;1.75;;;;;;;23.73;32.77;100566.67;1793602;78;21052;-82
2022/09/19 09:53:26;;;;;;;10.38;1.52;;;;;;;23.73;32.63;100563.08;1738804;79;21564;-83
2022/09/19 09:56:16;;;;;;;13.65;1.82;;;;;;;23.72;32.70;100566.42;1777675;78;21052;-81
2022/09/19 10:05:49;;;;;;;15.00;1.62;;;;;;;23.83;32.91;100545.97;1760408;79;21818;-80
2022/09/19 10:08:30;;;;;;;9.40;1.90;;;;;;;23.84;32.96;100540.08;1769342;79;21071;-82
2022/09/19 10:11:18;;;;;;;22.85;7.72;;;;;;;23.85;33.05;100547.84;1780238;79;21114;-81
2022/09/19 10:14:04;;;;;;;17.92;8.28;;;;;;;23.87;33.18;100541.34;1784009;79;21004;-83
2022/09/19 10:16:32;;;;;;;15.68;8.93;;;;;;;23.87;33.07;100538.56;1779246;79;21627;-81
2022/09/19 10:19:31;;;;;;;17.15;7.78;;;;;;;23.87;32.87;100534.39;1796633;79;21497;-81
2022/09/19 10:21:57;;;;;;;11.68;6.03;;;;;;;23.86;32.78;100535.55;1782042;78;21043;-82
2022/09/19 10:24:46;;;;;;;10.45;4.78;;;;;;;23.87;32.63;100530.23;1773825;79;21226;-80
2022/09/19 10:27:26;;;;;;;6.37;4.53;;;;;;;23.88;32.42;100533.25;1713287;83;21013;-83
2022/09/19 10:30:24;;;;;;;6.85;3.12;;;;;;;23.85;32.14;100531.95;1760152;79;21108;-80
2022/09/19 10:32:50;;;;;;;9.50;3.33;;;;;;;23.84;32.06;100531.74;1767067;79;21050;-81
2022/09/19 10:35:32;;;;;;;4.70;2.87;;;;;;;23.85;32.00;100531.17;1778952;79;21084;-81
2022/09/19 10:38:14;;;;;;;9.55;2.58;;;;;;;23.85;31.93;100535.34;1739540;80;21192;-83
2022/09/19 10:40:57;;;;;;;4.47;2.20;;;;;;;23.84;31.79;100526.77;1792301;79;21630;-81
2022/09/19 10:43:36;;;;;;;2.80;1.30;;;;;;;23.85;31.65;100531.17;1769197;79;21102;-79
2022/09/19 10:46:08;;;;;;;5.83;1.70;;;;;;;23.83;31.34;100524.56;1771365;79;21047;-80
2022/09/19 10:48:38;;;;;;;3.45;1.52;;;;;;;23.82;31.38;100515.98;1751124;80;21031;-79
2022/09/19 10:51:11;;;;;;;;;;;;;;;23.82;31.28;100517.95;1769816;80;21611;-81
2022/09/19 10:53:39;;;;;;;5.83;1.27;;;;;;;23.80;31.42;100510.55;1743785;79;20191;-79
2022/09/19 10:56:26;;;;;;;4.60;1.10;;;;;;;23.80;31.70;100505.81;1759643;79;21550;-79
2022/09/19 10:59:06;;;;;;;5.50;1.22;;;;;;;23.84;31.47;100500.38;1732805;79;21084;-79
2022/09/19 11:01:32;;;;;;;7.67;0.93;;;;;;;23.84;31.13;100492.03;1745049;79;21099;-79
2022/09/19 11:04:10;;;;;;;17.75;1.77;;;;;;;23.81;30.86;100492.70;1767391;78;21102;-81
2022/09/19 11:06:48;;;;;;;22.42;2.20;;;;;;;23.82;30.85;100488.78;1752804;79;21128;-79
2022/09/19 11:09:35;;;;;;;21.35;2.12;;;;;;;23.85;31.01;100493.06;1625727;83;21100;-75
2022/09/19 11:12:15;;;;;;;15.23;2.17;;;;;;;23.87;31.12;100482.42;1678328;83;21070;-84
2022/09/19 11:14:46;;;;;;;18.40;1.98;;;;;;;23.87;31.29;100479.64;1678463;83;21135;-81
2022/09/19 11:17:37;;;;;;;19.17;2.22;;;;;;;23.90;31.43;100476.16;1698853;82;21131;-80
2022/09/19 11:20:30;;;;;;;19.48;2.08;;;;;;;23.92;31.52;100468.88;1761369;79;21632;-80
2022/09/19 11:23:16;;;;;;;11.20;1.60;;;;;;;23.93;31.55;100466.34;1749079;79;21744;-81
2022/09/19 11:26:08;;;;;;;9.65;1.92;;;;;;;23.94;31.76;100453.47;1756384;79;21027;-80
2022/09/19 11:29:06;;;;;;;9.65;1.35;;;;;;;23.96;31.93;100448.38;1753019;79;21042;-81
2022/09/19 11:31:53;;;;;;;7.30;1.55;;;;;;;23.97;31.99;100450.02;1731261;82;22063;-81
2022/09/19 11:34:41;;;;;;;9.08;1.70;;;;;;;24.00;32.08;100443.75;1693564;80;21109;-81
2022/09/19 11:37:46;;;;;;;9.58;1.35;;;;;;;24.02;32.14;100446.16;1753788;79;21603;-83
2022/09/19 11:40:50;;;;;;;6.22;1.37;;;;;;;24.01;32.08;100438.43;1745587;80;21511;-82
2022/09/19 11:43:45;;;;;;;4.83;1.10;;;;;;;24.02;32.00;100444.77;1743983;79;21129;-81
2022/09/19 11:46:17;;;;;;;3.45;1.10;;;;;;;24.01;31.99;100452.90;1757728;79;21173;-81
2022/09/19 11:49:23;;;;;;;8.35;1.12;;;;;;;24.00;31.89;100440.16;1769326;79;21039;-81
2022/09/19 11:52:11;;;;;;;10.38;1.50;;;;;;;24.01;31.91;100444.56;1773479;80;21040;-82
2022/09/19 11:55:06;;;;;;;5.05;1.02;;;;;;;24.01;31.88;100450.13;1775991;78;21049;-82
2022/09/19 11:57:54;;;;;;;14.80;1.25;;;;;;;23.99;31.86;100437.95;1776306;79;21033;-83
2022/09/19 12:00:22;;;;;;;17.77;1.42;;;;;;;24.02;31.73;100440.59;1773831;79;21095;-83
2022/09/19 12:03:16;;;;;;;18.50;1.67;;;;;;;24.04;31.53;100441.08;1760893;79;21083;-81
2022/09/19 12:05:56;;;;;;;8.90;1.40;;;;;;;24.07;31.45;100440.37;1767048;79;21098;-82
2022/09/19 12:08:58;;;;;;;11.15;1.20;;;;;;;24.07;31.46;100442.57;1748866;79;21186;-83
2022/09/19 12:11:38;;;;;;;9.08;0.93;;;;;;;24.08;31.53;100442.81;1781095;79;21053;-86
2022/09/19 12:14:07;;;;;;;;;;;;;;;24.10;31.55;100432.74;1766097;79;21997;-82